Dod Ballapur, India
Current Conditions -  °F | °C
As of 12:00 AM on Monday 22 Dec 2014 (Local Time) from VOBL Reporting Station
Scattered Clouds Scattered Clouds  
Wind Chill: 72°   Ceiling: Unl
Heat Index: 72°   Visibility: 4mi
Dew Point: 72°   Wind: 8mph
Humidity: 100%   Direction: 90°E
Pressure: 30.03"   Gusts: NA
Location:  13.29°N, 77.53°E
Report Text: VOBL 211900Z 09007KT 6000 SCT008 SCT012 22/22 Q1017 NOSIG
Loading
Personal Weather Stations






























Interactive Weather Map New forecast layout! Learn more

10-Day Weather Forecast

Advertisements
Track Severe Weather on mobile